Station: EDINBURGH AP

  Atmospheric Gas Attenuation - ITU Rec 676-11   --------------- db/100km ---------------
Date Time Temp RH % AH g/m3 Dew Point Wind Direction Speed kph Gust kph Barometer mB Rainfall Since 9am 24GHz 47GHz 76GHz 122GHz 134GHz 241GHz
27 14:10 16.9 43 6.18 4.3 9 13 1024.7 0 14.3 21.8 29.8 77.7 65.9 224.9
27 14:00 16.5 43 6.04 3.9 9 15 1024.9 0 14.0 21.7 29.5 76.7 64.6 220.3
27 13:50 16.6 44 6.22 4.3 11 13 1024.9 0 14.4 21.9 30.1 78.3 66.7 227.5
27 13:40 17.2 44 6.44 4.9 7 9 1025 0 14.9 22.1 30.6 79.9 68.7 234.8
27 13:30 17.4 42 6.22 4.4 13 22 1025.2 0 14.4 21.8 29.8 77.6 66.0 225.3
27 13:20 16.5 46 6.46 4.9 9 13 1025.2 0 14.9 22.3 31.0 80.8 69.6 237.7
27 13:10 16.9 48 6.9 5.8 9 11 1025.3 0 15.8 22.9 32.4 84.6 74.5 254.9
27 13:00 16.6 47 6.64 5.3 13 30 1025.5 0 15.3 22.6 31.6 82.4 71.7 245.0
27 12:50 17 44 6.37 4.7 13 15 1025.4 0 14.7 22.1 30.5 79.4 68.1 232.6
27 12:40 16.5 49 6.88 5.8 9 13 1025.7 0 15.8 23.0 32.5 84.9 74.6 255.4
27 12:30 15.9 48 6.5 4.9 7 13 1025.9 0 15.0 22.6 31.4 81.8 70.6 241.3
27 12:20 15.9 46 6.23 4.3 9 13 1026 0 14.5 22.2 30.4 79.2 67.4 230.1
27 12:10 15.8 45 6.06 3.9 15 17 1026.2 0 14.1 21.9 29.8 77.7 65.5 223.3
27 12:00 15.6 45 5.98 3.7 9 15 1026.5 0 13.9 21.9 29.6 77.2 64.8 220.6
27 11:50 15.2 50 6.49 4.9 11 13 1026.6 0 15.0 22.7 31.6 82.5 71.2 243.1
27 11:40 15.4 46 6.04 3.9 11 13 1026.7 0 14.1 22.0 29.9 77.9 65.6 223.7
27 11:30 14.5 52 6.47 4.8 7 13 1026.9 0 15.0 22.9 31.9 83.0 71.6 244.5
27 11:20 14.6 50 6.26 4.3 11 13 1026.9 0 14.6 22.6 31.0 80.9 69.0 235.2
27 11:10 14.2 50 6.11 3.9 13 17 1027.1 0 14.3 22.4 30.7 79.8 67.5 230.1
27 11:00 14 50 6.03 3.8 9 15 1027.2 0 14.1 22.4 30.4 79.2 66.7 227.3
27 10:50 14 51 6.15 4 9 11 1027.4 0 14.4 22.6 30.9 80.4 68.2 232.4
27 10:40 14 53 6.39 4.6 9 11 1027.5 0 14.9 22.9 31.8 82.8 71.1 242.7
27 10:30 13.7 50 5.92 3.5 13 17 1027.6 0 13.9 22.3 30.2 78.5 65.7 223.5
27 10:20 14.7 50 6.3 4.4 9 13 1027.6 0 14.7 22.6 31.2 81.2 69.4 236.8
27 10:10 14.4 51 6.3 4.4 7 9 1027.7 0 14.7 22.7 31.3 81.5 69.7 237.7
27 10:00 13.7 55 6.51 4.8 7 9 1027.7 0 15.1 23.2 32.3 84.3 72.9 248.8
27 09:50 13.4 55 6.39 4.6 7 9 1027.9 0 14.9 23.1 32.0 83.5 71.7 244.6
27 09:40 13.1 58 6.62 5 7 9 1028 0 15.4 23.5 33.0 86.1 74.8 255.5
27 09:30 12.7 54 6.01 3.6 9 15 1028.1 0 14.1 22.7 30.9 80.4 67.6 230.3
27 09:20 12.6 54 5.97 3.5 7 9 1028.1 0 14.0 22.7 30.8 80.1 67.2 228.8
27 09:10 12.3 56 6.08 3.8 9 11 1028.2 0 14.3 22.9 31.3 81.5 68.8 234.5
27 09:00 12.3 62 6.73 5.2 9 13 1028.1 0 15.7 23.9 33.8 88.1 77.0 263.0
27 08:50 12 63 6.71 5.2 9 9 1028.1 0.2 15.6 23.9 33.8 88.2 77.0 263.1
27 08:40 11.4 64 6.57 4.8 9 11 1028.1 0.2 15.4 23.9 33.5 87.5 75.8 258.8
27 08:30 10.9 67 6.67 5 7 11 1028.1 0.2 15.6 24.2 34.1 89.0 77.6 265.0
27 08:20 10.3 69 6.61 4.9 7 9 1028.2 0.2 15.5 24.2 34.2 89.1 77.4 264.3
27 08:10 10 72 6.77 5.2 9 11 1028.2 0.2 15.8 24.6 34.9 91.1 79.8 272.6
27 08:00 9.5 73 6.65 4.9 9 13 1028.2 0.2 15.6 24.5 34.7 90.4 78.7 268.8
27 07:50 9.2 77 6.88 5.4 7 9 1028.1 0.2 16.1 25.0 35.7 93.2 82.1 280.5
27 07:40 8.6 78 6.7 5 9 11 1028 0.2 15.7 24.8 35.2 92.0 80.3 274.1
27 07:30 7.9 80 6.57 4.7 9 11 1027.9 0.2 15.5 24.8 35.0 91.4 79.3 270.5
27 07:20 7.4 81 6.44 4.4 9 9 1027.8 0.2 15.2 24.7 34.7 90.5 78.0 266.0
27 07:10 6.8 84 6.43 4.3 9 9 1027.6 0.2 15.2 24.9 34.9 91.1 78.5 267.6
27 07:00 6 85 6.17 3.7 11 13 1027.5 0.2 14.7 24.7 34.2 89.2 75.8 257.9
27 06:50 5.6 87 6.15 3.6 11 11 1027.5 0.2 14.7 24.8 34.3 89.4 75.9 258.3
27 06:40 5.1 86 5.89 3 13 15 1027.3 0.2 14.1 24.5 33.4 87.1 72.8 247.5
27 06:30 4.9 87 5.88 2.9 13 13 1027.1 0.2 14.1 24.5 33.5 87.2 72.9 247.6
27 06:20 4.8 89 5.97 3.1 11 13 1026.8 0.2 14.3 24.6 33.9 88.3 74.2 252.1
27 06:10 4.4 89 5.82 2.8 11 11 1026.7 0.2 14.0 24.5 33.4 87.1 72.5 246.2
27 06:00 4.4 90 5.88 2.9 9 13 1026.6 0.2 14.2 24.6 33.6 87.7 73.3 249.1
27 05:50 4.3 90 5.84 2.8 13 13 1026.4 0.2 14.1 24.6 33.5 87.4 72.8 247.4
27 05:40 4.3 90 5.84 2.8 11 11 1026.2 0.2 14.1 24.5 33.5 87.3 72.8 247.4
27 05:30 4.2 89 5.74 2.6 9 13 1026.1 0.2 13.9 24.4 33.1 86.3 71.6 242.9
27 05:10 4.7 89 5.93 3 9 9 1025.7 0.2 14.2 24.6 33.7 87.8 73.6 250.3
27 04:40 5.3 88 6.1 3.5 11 13 1025.4 0.2 14.6 24.7 34.1 89.0 75.4 256.4
27 04:30 5.5 88 6.18 3.7 11 13 1025.5 0.2 14.8 24.8 34.4 89.7 76.2 259.6
27 04:20 5.4 88 6.14 3.6 11 11 1025.3 0.2 14.7 24.7 34.2 89.3 75.8 258.0
27 04:10 5.3 89 6.17 3.6 9 11 1025.3 0.2 14.7 24.8 34.4 89.8 76.3 259.7
27 04:00 5.2 90 6.2 3.7 9 11 1025.3 0.2 14.8 24.9 34.6 90.2 76.8 261.5
27 03:50 5 90 6.12 3.5 7 9 1025.2 0.2 14.6 24.8 34.3 89.5 75.9 258.3
27 03:40 4.9 90 6.08 3.4 6 7 1025.2 0.2 14.6 24.7 34.2 89.2 75.5 256.7
27 03:30 4.6 89 5.89 2.9 6 7 1025.2 0.2 14.2 24.5 33.5 87.5 73.2 248.6
27 03:20 5.1 90 6.16 3.6 7 7 1025 0.2 14.7 24.8 34.4 89.9 76.3 259.8
27 03:10 4.6 88 5.83 2.8 7 7 1024.9 0.2 14.0 24.4 33.3 86.8 72.3 245.7
27 03:00 5.4 89 6.21 3.7 6 7 1024.9 0.2 14.8 24.8 34.5 90.0 76.7 261.2
27 02:50 4.9 87 5.88 2.9 6 6 1024.7 0.2 14.1 24.4 33.4 87.0 72.7 247.1
27 02:40 5.1 83 5.68 2.5 6 7 1024.6 0.2 13.7 24.0 32.5 84.6 69.8 237.0
27 02:30 6.4 84 6.26 3.9 7 9 1024.7 0.2 14.9 24.6 34.3 89.4 76.4 260.2
27 02:20 6.7 84 6.39 4.2 9 11 1024.5 0.2 15.2 24.7 34.7 90.5 77.8 265.3
27 02:10 6.6 86 6.5 4.4 7 9 1024.6 0.2 15.4 24.9 35.2 91.8 79.4 270.9
27 02:00 6.4 86 6.41 4.2 9 11 1024.8 0.2 15.2 24.9 34.9 91.1 78.4 267.3
27 01:50 6.6 86 6.5 4.4 9 9 1024.8 0.2 15.4 24.9 35.2 91.8 79.4 270.9
27 01:40 6.9 85 6.55 4.6 9 11 1024.8 0.2 15.5 24.9 35.2 92.0 79.8 272.3
27 01:30 6.9 85 6.55 4.6 9 9 1025.1 0.2 15.5 25.0 35.3 92.1 79.8 272.3
27 01:20 7 86 6.67 4.8 7 9 1025 0.2 15.7 25.1 35.7 93.3 81.3 277.7
27 01:10 7.1 85 6.63 4.8 7 9 1025 0.2 15.7 25.0 35.5 92.7 80.7 275.4
27 01:00 7.3 84 6.64 4.8 6 7 1025.1 0.2 15.7 25.0 35.4 92.6 80.6 275.2
27 00:50 7.5 84 6.73 5 6 7 1025.1 0.2 15.9 25.1 35.7 93.3 81.6 278.8
27 00:40 7.6 83 6.69 4.9 6 7 1025.1 0.2 15.8 25.0 35.5 92.8 81.0 276.5
27 00:30 7.7 83 6.73 5 6 6 1025.2 0.2 15.8 25.0 35.6 93.1 81.4 278.1
27 00:20 7.8 82 6.7 4.9 6 7 1025.1 0.2 15.8 25.0 35.5 92.6 80.9 276.3
27 00:10 7.9 82 6.74 5 6 7 1025.1 0.2 15.9 25.0 35.6 93.0 81.3 277.8
27 00:00 8 81 6.7 4.9 7 9 1025.2 0.2 15.8 24.9 35.4 92.4 80.7 275.6
26 23:50 8.1 83 6.91 5.4 7 9 1025.1 0.2 16.2 25.2 36.2 94.6 83.4 285.1
26 23:40 8.1 83 6.91 5.4 4 6 1025.1 0.2 16.2 25.2 36.2 94.6 83.4 285.1
26 23:30 8.2 84 7.04 5.7 6 9 1025.2 0.2 16.5 25.4 36.7 95.9 85.1 290.9
26 23:20 8.2 84 7.04 5.7 6 6 1025 0.2 16.5 25.4 36.7 95.9 85.1 290.9
26 23:10 8 84 6.95 5.5 7 7 1025 0.2 16.3 25.3 36.4 95.1 84.1 287.4
26 23:00 7.9 84 6.9 5.4 6 7 1025.1 0.2 16.2 25.3 36.2 94.7 83.5 285.4
26 22:50 7.9 83 6.82 5.2 6 7 1024.9 0.2 16.0 25.1 35.9 93.8 82.4 281.5
26 22:40 8.1 80 6.66 4.9 7 7 1024.8 0.2 15.7 24.8 35.2 91.8 80.0 273.3
26 22:30 8.3 80 6.75 5.1 7 7 1024.9 0.2 15.9 24.9 35.4 92.6 81.0 276.8
26 22:20 8.3 80 6.75 5.1 7 7 1024.9 0.2 15.9 24.9 35.4 92.6 81.0 276.8
26 22:10 8.1 83 6.91 5.4 6 6 1024.9 0.2 16.2 25.2 36.2 94.6 83.4 285.1
26 22:00 7.9 82 6.74 5 6 7 1025 0.2 15.9 25.0 35.6 92.9 81.3 277.8
26 21:50 7.7 82 6.65 4.8 6 7 1025 0.2 15.7 24.9 35.3 92.2 80.3 274.2
26 21:40 8.5 78 6.66 4.9 6 7 1025 0.2 15.7 24.7 35.0 91.4 79.6 271.9
26 21:30 8.3 76 6.41 4.3 6 9 1025 0.2 15.1 24.3 34.1 88.9 76.5 261.0
26 21:20 7.7 78 6.33 4.1 7 7 1024.9 0.2 15.0 24.4 34.0 88.7 76.1 259.3
26 21:10 7.6 79 6.37 4.2 9 9 1024.9 0.2 15.1 24.5 34.2 89.3 76.7 261.4

Last Refresh: 27-Sep-2020 14:20:52

Most of the information presented on this site is sourced from the Bureau of Meteorology.  Copyright in all material sourced from the Bureau of Meteorology resides with the Commonwealth of Australia.